Time;durP1;ratioP1;P1;durP2;ratioP2;P2;SDS_P1;SDS_P2;PMS_P1;PMS_P2;Temp;Humidity;BMP_temperature;BMP_pressure;BME280_temperature;BME280_humidity;BME280_pressure;Samples;Min_cycle;Max_cycle;Signal;HPM_P1;HPM_P2
2021/04/23 00:00:51;;;;;;;33.93;23.30;;;;;;;15.42;55.82;99078.36;328320;108;2660819;-73
2021/04/23 00:01:56;;;;;;;34.01;23.26;;;;;;;15.33;56.07;99080.70;364207;108;1960996;-73
2021/04/23 00:03:40;;;;;;;34.36;24.21;;;;;;;15.34;55.76;99078.80;348319;108;2868971;-72
2021/04/23 00:04:46;;;;;;;34.54;24.50;;;;;;;15.35;55.41;99080.47;364395;108;1962999;-73
2021/04/23 00:05:56;;;;;;;30.81;23.59;;;;;;;15.28;56.29;99085.26;363963;108;1961949;-73
2021/04/23 00:07:02;;;;;;;33.18;24.07;;;;;;;15.25;56.54;99067.53;365003;108;1962969;-73
2021/04/23 00:08:10;;;;;;;32.76;24.23;;;;;;;15.20;57.90;99072.09;319143;108;2797083;-72
2021/04/23 00:09:18;;;;;;;34.49;25.07;;;;;;;15.26;57.56;99074.61;365689;108;1961956;-73
2021/04/23 00:10:25;;;;;;;31.90;23.64;;;;;;;15.28;57.67;99067.03;364174;108;1961958;-73
2021/04/23 00:11:37;;;;;;;32.89;23.54;;;;;;;15.17;58.45;99068.78;365763;108;1961950;-73
2021/04/23 00:12:42;;;;;;;;;;;;;;;15.14;57.66;99065.75;369693;108;1960990;-73
2021/04/23 00:13:48;;;;;;;30.68;22.33;;;;;;;15.08;58.49;99069.45;366455;108;1961977;-72
2021/04/23 00:14:55;;;;;;;32.73;23.21;;;;;;;15.08;57.88;99069.45;319691;108;2774997;-73
2021/04/23 00:16:02;;;;;;;31.70;23.32;;;;;;;15.02;58.24;99062.30;365355;108;1963990;-73
2021/04/23 00:17:08;;;;;;;30.24;22.50;;;;;;;15.06;58.36;99058.02;364424;108;1962007;-74
2021/04/23 00:18:15;;;;;;;30.43;22.52;;;;;;;15.09;58.42;99062.95;326533;108;2672902;-72
2021/04/23 00:19:23;;;;;;;29.17;21.31;;;;;;;15.05;58.28;99061.80;347929;108;1962053;-73
2021/04/23 00:20:29;;;;;;;27.69;20.87;;;;;;;14.98;57.62;99064.70;365038;108;1961961;-73
2021/04/23 00:21:36;;;;;;;28.24;20.51;;;;;;;14.97;57.97;99059.51;366030;108;1962049;-72
2021/04/23 00:22:42;;;;;;;29.16;21.97;;;;;;;14.91;58.72;99055.89;365712;108;1962014;-73
2021/04/23 00:23:48;;;;;;;27.51;20.01;;;;;;;15.12;57.66;99060.55;364973;108;1962025;-73
2021/04/23 00:24:54;;;;;;;30.38;21.34;;;;;;;15.20;57.25;99058.48;365865;108;1961836;-72
2021/04/23 00:26:01;;;;;;;28.85;21.51;;;;;;;15.22;58.02;99061.78;366682;108;1960842;-73
2021/04/23 00:27:07;;;;;;;29.32;22.09;;;;;;;15.29;57.70;99067.84;367410;108;1960802;-73
2021/04/23 00:28:14;;;;;;;27.82;20.24;;;;;;;15.46;57.24;99071.36;367161;108;1960904;-73
2021/04/23 00:29:20;;;;;;;28.74;21.75;;;;;;;15.00;57.70;99076.14;357797;108;2931915;-72
2021/04/23 00:30:29;;;;;;;27.80;20.81;;;;;;;14.89;57.54;99072.45;338678;108;1960773;-72
2021/04/23 00:31:37;;;;;;;28.60;19.64;;;;;;;14.84;57.74;99077.80;358636;108;2852976;-72
2021/04/23 00:32:52;;;;;;;27.20;21.04;;;;;;;14.83;58.11;99072.63;366722;108;1962012;-73
2021/04/23 00:33:57;;;;;;;25.63;20.06;;;;;;;14.83;57.98;99072.63;365650;108;1963956;-73
2021/04/23 00:35:03;;;;;;;27.70;20.44;;;;;;;14.79;58.13;99075.03;365896;108;1961970;-73
2021/04/23 00:36:10;;;;;;;27.08;20.25;;;;;;;14.76;58.32;99085.56;367057;108;1963948;-74
2021/04/23 00:37:16;;;;;;;26.24;19.43;;;;;;;14.77;58.09;99088.05;328269;108;2635869;-72
2021/04/23 00:38:25;;;;;;;25.93;19.38;;;;;;;14.88;58.26;99084.41;343474;108;1961996;-72
2021/04/23 00:39:31;;;;;;;25.37;20.41;;;;;;;14.79;57.97;99093.22;365793;108;1962047;-73
2021/04/23 00:40:49;;;;;;;22.76;17.09;;;;;;;14.80;58.11;99094.87;364925;108;1962013;-73
2021/04/23 00:41:54;;;;;;;24.66;18.03;;;;;;;14.77;58.36;99093.48;365037;107;1962023;-72
2021/04/23 00:43:00;;;;;;;25.67;17.93;;;;;;;14.75;58.41;99100.23;363608;108;1961921;-72
2021/04/23 00:44:06;;;;;;;22.54;17.57;;;;;;;14.79;58.07;99104.09;364242;108;1961937;-72
2021/04/23 00:45:16;;;;;;;24.02;17.42;;;;;;;14.82;57.98;99107.16;332405;108;2558997;-72
2021/04/23 00:46:31;;;;;;;25.49;17.31;;;;;;;14.86;57.94;99107.48;367448;108;1961953;-73
2021/04/23 00:47:37;;;;;;;22.95;16.99;;;;;;;14.86;57.53;99107.48;343807;108;2358950;-73
2021/04/23 00:48:47;;;;;;;20.03;14.56;;;;;;;14.94;57.50;99117.94;334833;110;1962048;-73
2021/04/23 00:49:54;;;;;;;19.75;15.06;;;;;;;14.79;57.41;99120.41;358929;110;1961834;-72
2021/04/23 00:51:11;;;;;;;22.26;15.06;;;;;;;14.99;57.25;99107.14;357317;110;1962020;-72
2021/04/23 00:52:17;;;;;;;18.47;13.99;;;;;;;15.13;57.32;99108.43;306654;114;2708992;-73
2021/04/23 00:53:26;;;;;;;19.20;13.73;;;;;;;14.90;57.42;99106.74;352317;110;1961955;-73
2021/04/23 00:54:33;;;;;;;20.41;14.22;;;;;;;14.88;57.55;99108.06;321954;108;2707973;-72
2021/04/23 00:55:38;;;;;;;18.84;13.56;;;;;;;14.82;57.71;99109.87;349568;108;1961910;-72
2021/04/23 00:56:45;;;;;;;21.66;14.43;;;;;;;14.85;57.68;99111.28;366855;108;1961951;-73
2021/04/23 00:57:50;;;;;;;19.53;14.47;;;;;;;14.81;57.71;99118.27;364011;108;1964006;-72
2021/04/23 00:58:57;;;;;;;18.97;13.30;;;;;;;14.91;57.54;99107.56;365940;108;1961954;-72
2021/04/23 01:00:04;;;;;;;19.68;13.98;;;;;;;14.90;57.60;99112.18;296005;108;2269984;-73
2021/04/23 01:01:16;;;;;;;17.32;12.97;;;;;;;14.84;57.88;99109.61;365271;108;1961920;-72
2021/04/23 01:02:22;;;;;;;17.77;12.64;;;;;;;14.80;57.52;99113.91;365476;108;1962002;-72
2021/04/23 01:03:30;;;;;;;18.79;13.54;;;;;;;14.79;57.55;99123.13;325015;108;2691028;-72
2021/04/23 01:04:36;;;;;;;18.09;12.72;;;;;;;14.77;58.10;99111.70;366439;108;1961894;-72
2021/04/23 01:05:43;;;;;;;17.17;13.03;;;;;;;14.80;57.50;99103.86;364862;108;1962021;-72
2021/04/23 01:06:49;;;;;;;17.42;12.36;;;;;;;14.80;57.76;99100.32;349953;108;1961937;-72
2021/04/23 01:07:54;;;;;;;16.72;11.93;;;;;;;14.84;57.55;99109.61;356007;108;1963000;-72
2021/04/23 01:09:03;;;;;;;18.99;13.37;;;;;;;14.85;57.37;99106.66;354091;111;1961855;-72
2021/04/23 01:10:10;;;;;;;18.38;12.47;;;;;;;14.87;57.51;99109.96;341586;110;1962977;-72
2021/04/23 01:11:18;;;;;;;17.18;13.04;;;;;;;14.93;57.28;99102.70;358915;110;1963978;-73
2021/04/23 01:12:23;;;;;;;18.96;13.02;;;;;;;14.84;57.23;99098.73;362686;108;1962996;-73
2021/04/23 01:13:33;;;;;;;17.58;12.35;;;;;;;14.87;57.57;99100.95;317477;108;2863112;-73
2021/04/23 01:14:38;;;;;;;19.31;13.13;;;;;;;14.87;57.30;99093.64;365396;108;1962020;-73
2021/04/23 01:15:44;;;;;;;20.41;14.33;;;;;;;14.90;57.13;99106.74;332213;108;2899097;-73
2021/04/23 01:16:50;;;;;;;16.57;12.64;;;;;;;14.92;57.47;99112.77;360648;108;1961968;-72
2021/04/23 01:17:57;;;;;;;18.40;12.96;;;;;;;14.87;57.39;99120.84;364861;108;1962058;-73
2021/04/23 01:19:07;;;;;;;18.67;13.66;;;;;;;14.83;57.57;99118.85;366196;108;1961948;-73
2021/04/23 01:20:15;;;;;;;17.12;13.56;;;;;;;14.82;57.48;99122.63;366365;108;1962054;-72
2021/04/23 01:21:24;;;;;;;19.16;13.42;;;;;;;14.87;57.39;99119.98;365637;108;1962960;-73
2021/04/23 01:22:30;;;;;;;18.75;13.90;;;;;;;15.01;57.15;99115.88;341549;108;2895007;-73
2021/04/23 01:23:37;;;;;;;17.57;12.96;;;;;;;14.79;57.42;99115.81;348595;108;1961955;-72
2021/04/23 01:24:44;;;;;;;16.74;12.18;;;;;;;14.79;57.63;99114.97;365882;108;1961907;-72
2021/04/23 01:25:50;;;;;;;17.43;13.06;;;;;;;14.75;57.46;99113.83;328374;108;2650059;-73
2021/04/23 01:26:57;;;;;;;18.81;13.01;;;;;;;14.83;57.62;99116.13;368076;108;1961979;-73
2021/04/23 01:28:02;;;;;;;18.56;13.77;;;;;;;14.83;57.55;99110.70;365622;108;1962961;-73
2021/04/23 01:29:11;;;;;;;19.78;13.49;;;;;;;14.79;57.72;99106.81;365343;108;1961993;-73
2021/04/23 01:30:20;;;;;;;16.47;12.46;;;;;;;14.83;57.68;99097.92;365169;108;1964043;-73
2021/04/23 01:31:29;;;;;;;17.09;12.19;;;;;;;14.80;57.74;99114.73;346287;108;1962990;-73
2021/04/23 01:32:35;;;;;;;18.36;13.41;;;;;;;14.78;57.47;99105.17;364664;108;1964965;-73
2021/04/23 01:33:44;;;;;;;18.94;14.03;;;;;;;14.68;57.96;99111.26;329643;108;2611013;-72
2021/04/23 01:34:50;;;;;;;17.94;13.41;;;;;;;14.59;58.45;99112.75;366629;108;1961950;-71
2021/04/23 01:35:56;;;;;;;17.18;12.21;;;;;;;14.45;58.43;99090.47;339776;108;2418009;-72
2021/04/23 01:37:04;;;;;;;18.53;12.98;;;;;;;14.62;58.22;99115.79;366757;108;1962006;-73
2021/04/23 01:38:10;;;;;;;18.43;12.64;;;;;;;14.66;58.34;99108.80;367692;108;1961965;-72
2021/04/23 01:39:18;;;;;;;18.33;12.61;;;;;;;14.62;58.51;99114.97;366641;108;1963942;-73
2021/04/23 01:40:26;;;;;;;18.52;12.78;;;;;;;14.68;58.10;99106.64;315027;110;2786038;-73
2021/04/23 01:41:31;;;;;;;18.67;13.32;;;;;;;14.62;58.46;99107.63;334319;110;1961912;-73
2021/04/23 01:42:37;;;;;;;20.68;13.58;;;;;;;14.59;58.64;99113.56;333528;110;1962989;-72
2021/04/23 01:43:43;;;;;;;16.98;12.76;;;;;;;14.67;58.42;99115.88;359386;110;1962965;-74
2021/04/23 01:44:49;;;;;;;20.37;13.86;;;;;;;14.69;58.23;99105.59;366946;108;1963052;-73
2021/04/23 01:45:55;;;;;;;19.04;13.12;;;;;;;14.60;58.49;99112.48;366162;108;1964035;-73
2021/04/23 01:47:11;;;;;;;19.17;13.41;;;;;;;14.57;58.80;99107.55;365391;108;1962011;-72
2021/04/23 01:48:17;;;;;;;17.58;12.98;;;;;;;14.60;58.79;99117.10;316227;111;2721082;-73
2021/04/23 01:49:23;;;;;;;17.53;12.94;;;;;;;14.66;58.70;99114.23;343930;111;1962021;-72
2021/04/23 01:50:32;;;;;;;21.33;14.09;;;;;;;14.46;59.15;99108.41;358309;111;1962031;-72
2021/04/23 01:51:39;;;;;;;18.46;13.45;;;;;;;14.60;58.94;99109.77;293715;113;2230084;-73
2021/04/23 01:52:46;;;;;;;17.26;12.56;;;;;;;14.52;59.18;99112.86;357077;113;1962021;-72
2021/04/23 01:53:52;;;;;;;17.69;12.69;;;;;;;14.58;58.95;99105.64;332152;112;2890938;-73
2021/04/23 01:54:57;;;;;;;18.74;13.43;;;;;;;14.57;59.22;99104.01;333659;112;1962078;-73
2021/04/23 01:56:03;;;;;;;20.72;14.12;;;;;;;14.59;59.16;99116.28;335767;111;1962920;-72
2021/04/23 01:57:20;;;;;;;19.54;13.83;;;;;;;14.59;58.89;99112.75;356343;112;1960969;-72
2021/04/23 01:58:26;;;;;;;17.19;12.44;;;;;;;14.42;59.44;99115.39;352394;113;1960966;-72
2021/04/23 01:59:34;;;;;;;18.38;14.05;;;;;;;14.48;59.49;99128.02;325949;112;2527839;-74
2021/04/23 02:00:44;;;;;;;21.16;14.17;;;;;;;14.17;60.34;99130.16;356945;112;1962013;-72
2021/04/23 02:01:50;;;;;;;16.33;11.36;;;;;;;14.38;59.91;99135.98;354018;113;1961985;-72
2021/04/23 02:02:58;;;;;;;11.05;7.35;;;;;;;14.22;55.58;99151.99;351243;113;1961931;-71
2021/04/23 02:04:06;;;;;;;15.57;7.36;;;;;;;13.76;54.84;99148.37;347904;113;1963991;-73
2021/04/23 02:05:13;;;;;;;12.72;6.14;;;;;;;13.42;52.99;99147.35;351601;113;1961982;-72
2021/04/23 02:06:20;;;;;;;9.93;6.89;;;;;;;13.38;52.85;99168.69;342191;116;1962039;-73
2021/04/23 02:07:25;;;;;;;10.50;5.95;;;;;;;13.33;53.07;99163.14;343497;115;1961952;-74
2021/04/23 02:08:31;;;;;;;10.13;5.54;;;;;;;13.39;53.16;99162.22;352744;113;1961952;-72
2021/04/23 02:09:36;;;;;;;11.59;6.22;;;;;;;13.12;52.39;99178.07;345947;115;1962973;-72
2021/04/23 02:10:52;;;;;;;9.74;5.92;;;;;;;13.06;52.89;99172.78;345750;113;1960637;-72
2021/04/23 02:11:57;;;;;;;11.46;6.19;;;;;;;13.00;52.81;99166.41;352215;113;1963958;-73
2021/04/23 02:13:05;;;;;;;12.73;6.69;;;;;;;13.06;53.08;99172.78;308095;113;2803916;-72
2021/04/23 02:14:10;;;;;;;11.86;6.20;;;;;;;13.00;52.67;99173.72;352447;113;1962081;-72
2021/04/23 02:15:18;;;;;;;9.33;5.94;;;;;;;13.00;53.32;99177.25;352867;113;1961913;-71
2021/04/23 02:16:25;;;;;;;11.97;5.71;;;;;;;12.96;53.21;99186.90;350676;113;1961990;-72
2021/04/23 02:17:30;;;;;;;10.70;6.31;;;;;;;12.87;53.59;99181.00;354149;112;1962013;-73
2021/04/23 02:18:37;;;;;;;11.21;6.62;;;;;;;12.86;54.04;99181.22;352466;113;1961946;-73
2021/04/23 02:19:42;;;;;;;9.67;6.18;;;;;;;12.40;55.02;99199.81;352188;113;1960729;-73
2021/04/23 02:20:49;;;;;;;11.20;6.73;;;;;;;12.55;54.92;99185.87;323398;114;2500945;-73
2021/04/23 02:21:55;;;;;;;11.90;6.84;;;;;;;12.54;54.82;99190.47;353814;113;1961928;-73
2021/04/23 02:23:03;;;;;;;11.67;6.56;;;;;;;12.57;54.98;99194.59;351505;113;1962058;-72
2021/04/23 02:24:09;;;;;;;10.42;6.61;;;;;;;12.60;55.08;99193.31;309185;113;2762004;-73
2021/04/23 02:25:17;;;;;;;11.79;6.63;;;;;;;12.53;55.16;99177.95;340547;113;1963998;-72
2021/04/23 02:26:24;;;;;;;11.62;6.21;;;;;;;12.51;55.10;99182.77;328449;105;1962000;-72
2021/04/23 02:27:29;;;;;;;10.41;5.87;;;;;;;12.36;55.53;99193.22;349601;107;1962027;-73
2021/04/23 02:28:35;;;;;;;10.80;5.74;;;;;;;12.44;55.30;99192.08;372902;107;1961966;-73
2021/04/23 02:29:41;;;;;;;12.64;6.49;;;;;;;12.44;54.99;99181.24;370173;107;1961962;-72
2021/04/23 02:30:53;;;;;;;10.51;5.61;;;;;;;12.49;55.07;99182.20;365606;109;1961985;-73
2021/04/23 02:31:59;;;;;;;10.98;6.30;;;;;;;12.44;54.84;99176.64;329813;107;2587029;-73
2021/04/23 02:33:06;;;;;;;10.61;5.62;;;;;;;12.39;55.11;99192.76;341121;109;1962009;-72
2021/04/23 02:34:14;;;;;;;11.36;6.43;;;;;;;12.37;55.06;99185.92;365062;111;1962062;-73
2021/04/23 02:35:20;;;;;;;11.51;5.97;;;;;;;12.46;54.60;99200.78;369614;107;1961873;-72
2021/04/23 02:36:27;;;;;;;16.33;6.59;;;;;;;12.40;54.22;99199.81;364635;109;1960727;-73
2021/04/23 02:37:35;;;;;;;12.65;5.89;;;;;;;12.16;54.37;99209.71;364912;109;1961939;-72
2021/04/23 02:38:40;;;;;;;11.35;5.57;;;;;;;12.30;54.42;99205.80;372106;107;1962006;-72
2021/04/23 02:39:46;;;;;;;11.81;5.96;;;;;;;12.37;54.38;99194.04;364049;109;1961969;-72
2021/04/23 02:40:53;;;;;;;10.32;5.87;;;;;;;12.34;54.29;99197.22;364421;109;1962933;-72
2021/04/23 02:41:59;;;;;;;9.91;5.80;;;;;;;12.30;53.93;99199.53;332328;107;2640971;-73
2021/04/23 02:43:16;;;;;;;14.89;7.01;;;;;;;12.41;54.07;99201.48;362834;109;1962016;-72
2021/04/23 02:44:25;;;;;;;12.60;6.54;;;;;;;12.33;53.66;99223.44;363169;109;1960973;-73
2021/04/23 02:45:33;;;;;;;10.91;5.93;;;;;;;12.28;54.03;99198.95;363740;107;1961948;-72
2021/04/23 02:46:40;;;;;;;11.64;6.50;;;;;;;12.35;53.51;99199.67;331567;107;1961984;-73
2021/04/23 02:47:48;;;;;;;9.77;6.27;;;;;;;12.30;53.75;99202.24;364683;108;1961728;-72
2021/04/23 02:48:54;;;;;;;12.09;6.41;;;;;;;12.29;53.54;99211.44;316618;109;2813021;-72
2021/04/23 02:50:03;;;;;;;10.87;5.61;;;;;;;12.31;53.62;99207.44;365700;108;1960739;-73
2021/04/23 02:51:24;;;;;;;10.12;5.72;;;;;;;12.17;53.60;99207.83;340224;109;2386959;-72
2021/04/23 02:52:29;;;;;;;11.80;6.46;;;;;;;12.23;53.43;99215.87;346075;109;1961880;-72
2021/04/23 02:53:35;;;;;;;12.87;6.30;;;;;;;12.15;53.86;99224.31;361863;107;1961966;-71
2021/04/23 02:54:40;;;;;;;10.33;5.58;;;;;;;12.00;54.37;99213.05;369012;107;1961996;-72
2021/04/23 02:55:45;;;;;;;11.06;5.79;;;;;;;12.13;54.22;99229.13;369120;107;1962047;-72
2021/04/23 02:56:54;;;;;;;11.98;5.76;;;;;;;11.93;53.76;99234.75;322228;107;2805006;-73
2021/04/23 02:58:06;;;;;;;8.96;5.24;;;;;;;11.74;54.41;99246.59;350454;107;1961901;-73
2021/04/23 02:59:12;;;;;;;10.26;5.34;;;;;;;11.88;54.25;99223.77;369210;107;1961974;-72
2021/04/23 03:00:31;;;;;;;13.27;5.71;;;;;;;11.91;54.15;99244.15;369103;107;1960667;-73
2021/04/23 03:01:40;;;;;;;10.43;5.68;;;;;;;11.78;54.21;99245.11;367002;109;1962045;-73
2021/04/23 03:02:46;;;;;;;12.44;5.34;;;;;;;11.76;54.22;99241.80;368275;110;1961921;-73
2021/04/23 03:03:51;;;;;;;10.82;5.36;;;;;;;11.71;54.50;99244.34;367117;110;1961937;-73
2021/04/23 03:04:58;;;;;;;12.83;5.51;;;;;;;11.42;54.70;99265.62;366306;110;1961973;-72
2021/04/23 03:06:05;;;;;;;10.68;5.67;;;;;;;11.49;54.67;99233.13;332691;110;2590033;-72
2021/04/23 03:07:10;;;;;;;8.13;4.59;;;;;;;11.50;54.39;99249.11;365070;110;1961944;-72
2021/04/23 03:08:17;;;;;;;8.60;4.59;;;;;;;11.38;54.20;99250.91;366761;110;1961944;-72
2021/04/23 03:09:23;;;;;;;10.07;4.89;;;;;;;11.35;54.43;99284.63;366326;110;1962009;-73
2021/04/23 03:10:33;;;;;;;9.72;4.83;;;;;;;11.37;54.14;99270.86;368084;110;1961924;-73
2021/04/23 03:11:41;;;;;;;9.66;4.92;;;;;;;11.34;54.17;99266.72;332556;108;2553913;-73
2021/04/23 03:12:46;;;;;;;10.31;5.23;;;;;;;11.42;54.03;99269.15;367104;110;1961946;-72
2021/04/23 03:13:55;;;;;;;10.82;5.08;;;;;;;11.39;54.19;99268.77;366369;110;1960864;-72
2021/04/23 03:15:00;;;;;;;10.44;5.06;;;;;;;11.17;54.59;99261.05;359741;110;1963969;-72
2021/04/23 03:16:07;;;;;;;9.38;4.99;;;;;;;11.28;54.44;99283.02;367949;110;1962024;-72
2021/04/23 03:17:13;;;;;;;11.36;5.13;;;;;;;11.42;54.39;99271.85;366712;110;1963001;-73
2021/04/23 03:18:21;;;;;;;10.42;5.13;;;;;;;11.27;54.37;99294.86;318122;110;2828948;-73
2021/04/23 03:19:28;;;;;;;11.88;4.71;;;;;;;11.27;54.40;99275.94;361311;111;1962025;-73
2021/04/23 03:20:35;;;;;;;8.76;4.53;;;;;;;11.31;54.26;99277.98;362134;110;1963015;-72
2021/04/23 03:21:41;;;;;;;11.07;5.26;;;;;;;11.23;54.61;99284.48;368599;110;1962001;-73
2021/04/23 03:22:46;;;;;;;11.56;5.16;;;;;;;11.38;54.67;99276.06;367503;108;1960937;-73
2021/04/23 03:23:54;;;;;;;9.54;4.89;;;;;;;11.36;54.52;99280.86;366572;110;1962057;-73
2021/04/23 03:24:59;;;;;;;13.37;5.07;;;;;;;11.20;54.55;99293.05;342515;110;1962058;-73
2021/04/23 03:26:07;;;;;;;11.58;4.68;;;;;;;11.15;54.79;99303.69;366040;110;1962012;-72
2021/04/23 03:27:13;;;;;;;11.12;5.31;;;;;;;11.08;54.74;99291.25;361328;105;1962255;-72
2021/04/23 03:28:19;;;;;;;12.00;5.24;;;;;;;11.13;55.16;99286.84;308669;112;2800017;-73
2021/04/23 03:29:25;;;;;;;10.12;4.96;;;;;;;11.05;54.73;99334.95;340025;112;1961974;-72
2021/04/23 03:30:34;;;;;;;7.71;4.16;;;;;;;10.99;55.40;99296.92;352268;112;1960789;-73
2021/04/23 03:31:39;;;;;;;10.28;4.66;;;;;;;11.05;55.55;99289.81;354379;112;1962138;-73
2021/04/23 03:32:45;;;;;;;9.41;4.41;;;;;;;11.03;55.31;99318.11;352523;112;1961979;-72
2021/04/23 03:33:51;;;;;;;9.38;5.14;;;;;;;11.03;54.73;99301.89;361948;110;1961952;-72
2021/04/23 03:34:56;;;;;;;9.59;4.22;;;;;;;11.06;54.32;99296.05;362268;110;1963035;-72
2021/04/23 03:36:09;;;;;;;9.43;4.44;;;;;;;11.02;54.18;99309.17;354412;112;1961147;-73
2021/04/23 03:37:14;;;;;;;10.07;4.76;;;;;;;10.86;54.20;99304.30;350205;110;1962973;-73
2021/04/23 03:38:21;;;;;;;9.86;4.42;;;;;;;10.83;54.27;99320.94;363820;109;1964005;-73
2021/04/23 03:39:26;;;;;;;9.54;4.56;;;;;;;10.70;54.79;99308.33;360531;109;1962056;-72
2021/04/23 03:40:33;;;;;;;13.42;4.39;;;;;;;10.92;54.27;99298.83;314680;109;2796985;-74
2021/04/23 03:41:41;;;;;;;11.11;4.96;;;;;;;11.18;54.02;99315.94;347965;109;1963048;-73
2021/04/23 03:42:48;;;;;;;9.87;4.54;;;;;;;10.93;54.90;99307.80;362113;109;1962008;-73
2021/04/23 03:43:54;;;;;;;13.09;5.18;;;;;;;10.94;55.33;99314.84;303767;109;2155884;-73
2021/04/23 03:44:59;;;;;;;9.56;5.07;;;;;;;10.87;55.86;99304.05;363320;109;1961916;-73
2021/04/23 03:46:06;;;;;;;12.41;5.22;;;;;;;10.90;56.36;99303.65;362734;109;1962939;-72
2021/04/23 03:47:13;;;;;;;10.53;4.77;;;;;;;10.90;56.03;99302.80;339589;109;1962055;-72
2021/04/23 03:48:21;;;;;;;8.40;4.12;;;;;;;10.91;56.65;99307.17;362005;109;1961852;-72
2021/04/23 03:49:27;;;;;;;9.37;4.87;;;;;;;10.85;57.54;99303.47;364038;109;1962983;-73
2021/04/23 03:50:35;;;;;;;9.49;5.18;;;;;;;10.79;57.54;99305.14;345896;109;1963016;-73
2021/04/23 03:51:40;;;;;;;9.16;4.74;;;;;;;11.26;65.90;99301.33;354008;112;1962906;-72
2021/04/23 03:52:47;;;;;;;10.54;4.48;;;;;;;11.45;62.79;99305.74;361810;110;1961958;-72
2021/04/23 03:53:53;;;;;;;9.37;4.53;;;;;;;11.34;58.55;99317.28;328543;110;1963785;-73
2021/04/23 03:55:01;;;;;;;14.89;5.50;;;;;;;11.22;57.31;99311.77;361190;110;1961990;-72
2021/04/23 03:56:07;;;;;;;8.85;4.78;;;;;;;11.16;56.86;99305.33;359206;110;1964055;-73
2021/04/23 03:57:13;;;;;;;9.27;4.11;;;;;;;11.22;57.54;99322.58;329982;110;1962076;-73
2021/04/23 03:58:20;;;;;;;10.89;4.30;;;;;;;11.01;57.31;99310.23;360806;110;1961972;-72
2021/04/23 03:59:26;;;;;;;10.05;4.92;;;;;;;10.96;57.35;99315.46;361434;110;1960848;-73
2021/04/23 04:00:46;;;;;;;9.61;5.33;;;;;;;11.08;57.89;99316.41;360951;110;1962024;-73
2021/04/23 04:01:52;;;;;;;8.67;4.72;;;;;;;11.09;57.43;99325.38;362184;110;1961943;-73
2021/04/23 04:02:58;;;;;;;13.42;4.92;;;;;;;11.20;57.22;99311.97;347944;110;1965000;-73
2021/04/23 04:04:03;;;;;;;11.51;5.27;;;;;;;11.20;56.99;99311.14;360039;110;1962006;-72
2021/04/23 04:05:10;;;;;;;11.22;5.11;;;;;;;11.18;57.66;99315.94;360889;110;1962959;-73
2021/04/23 04:06:18;;;;;;;13.73;5.46;;;;;;;11.31;57.51;99315.84;326339;110;2592985;-73
2021/04/23 04:07:23;;;;;;;8.03;5.12;;;;;;;11.32;56.72;99317.48;362588;110;1962860;-73
2021/04/23 04:08:28;;;;;;;10.97;5.26;;;;;;;11.31;56.77;99321.25;362035;110;1961930;-73
2021/04/23 04:09:33;;;;;;;9.87;5.57;;;;;;;11.20;57.49;99314.67;361051;110;1964050;-73
2021/04/23 04:10:42;;;;;;;13.19;5.43;;;;;;;11.22;57.62;99315.28;360843;110;1961995;-72
2021/04/23 04:11:48;;;;;;;12.82;5.67;;;;;;;11.33;57.62;99313.75;355418;110;1962886;-73
2021/04/23 04:12:54;;;;;;;10.01;4.87;;;;;;;11.35;57.56;99313.52;358561;110;1962076;-72
2021/04/23 04:13:59;;;;;;;13.80;5.58;;;;;;;11.36;57.71;99316.02;359356;110;1961977;-73
2021/04/23 04:15:07;;;;;;;10.68;5.37;;;;;;;11.31;57.06;99315.84;362007;110;1962385;-74
2021/04/23 04:16:12;;;;;;;10.77;5.28;;;;;;;11.31;57.53;99317.72;354785;110;1962928;-74
2021/04/23 04:17:18;;;;;;;12.34;6.56;;;;;;;11.33;57.28;99319.16;355078;112;1965016;-72
2021/04/23 04:18:24;;;;;;;13.06;6.09;;;;;;;11.34;57.36;99320.80;352765;113;1961968;-73
2021/04/23 04:19:31;;;;;;;11.48;5.81;;;;;;;11.26;57.57;99321.08;353326;112;1963018;-74
2021/04/23 04:20:43;;;;;;;10.79;5.74;;;;;;;11.11;57.02;99321.38;352182;112;1961931;-73
2021/04/23 04:21:48;;;;;;;12.33;5.52;;;;;;;11.26;58.08;99318.38;353624;112;1962018;-73
2021/04/23 04:22:54;;;;;;;12.95;6.02;;;;;;;11.26;57.65;99312.97;351724;112;1961904;-73
2021/04/23 04:24:01;;;;;;;11.49;5.37;;;;;;;11.42;57.48;99317.01;351929;112;1962932;-73
2021/04/23 04:25:10;;;;;;;11.94;6.06;;;;;;;11.47;56.78;99319.88;335842;110;2388954;-74
2021/04/23 04:26:18;;;;;;;10.94;5.94;;;;;;;11.38;58.19;99315.80;359212;110;1962023;-73
2021/04/23 04:27:23;;;;;;;14.64;5.99;;;;;;;11.38;57.93;99322.04;363790;110;1963020;-73
2021/04/23 04:28:30;;;;;;;11.14;5.76;;;;;;;11.39;57.47;99323.68;360703;110;1962929;-73
2021/04/23 04:29:36;;;;;;;11.02;5.74;;;;;;;11.62;56.73;99330.38;342246;110;2302958;-72
2021/04/23 04:30:44;;;;;;;11.77;5.34;;;;;;;11.77;57.23;99321.91;360939;110;1961972;-73
2021/04/23 04:31:52;;;;;;;12.37;6.17;;;;;;;11.67;56.84;99322.44;355342;112;1961991;-73
2021/04/23 04:32:58;;;;;;;10.66;5.67;;;;;;;11.76;57.09;99320.27;356404;111;1962004;-73
2021/04/23 04:34:04;;;;;;;10.32;5.42;;;;;;;11.80;56.73;99319.61;362163;109;1962008;-73
2021/04/23 04:35:11;;;;;;;10.96;5.73;;;;;;;11.86;56.82;99317.92;360777;109;1961999;-73
2021/04/23 04:36:16;;;;;;;11.97;6.17;;;;;;;11.93;56.96;99313.25;347540;109;1961985;-72
2021/04/23 04:37:22;;;;;;;12.08;5.46;;;;;;;11.86;60.15;99315.22;362073;109;1963021;-73
2021/04/23 04:38:28;;;;;;;12.74;6.68;;;;;;;11.93;58.92;99321.38;363175;109;1961039;-73
2021/04/23 04:39:33;;;;;;;12.06;5.06;;;;;;;11.94;57.88;99322.22;361777;109;1961954;-74
2021/04/23 04:40:42;;;;;;;10.15;6.21;;;;;;;11.98;57.38;99324.23;362234;109;1962000;-73
2021/04/23 04:41:48;;;;;;;11.79;5.33;;;;;;;12.04;57.71;99317.95;361524;109;1962939;-74
2021/04/23 04:42:55;;;;;;;11.69;5.02;;;;;;;12.05;57.68;99322.30;361044;109;1961969;-73
2021/04/23 04:44:01;;;;;;;9.41;4.81;;;;;;;12.12;57.38;99330.37;326706;109;2573975;-72
2021/04/23 04:45:10;;;;;;;11.53;5.69;;;;;;;12.04;56.34;99323.36;350032;112;1961959;-73
2021/04/23 04:46:16;;;;;;;11.13;4.48;;;;;;;12.09;56.60;99328.94;359211;110;1962013;-73
2021/04/23 04:47:21;;;;;;;8.39;4.47;;;;;;;12.09;56.12;99325.38;361621;110;1961969;-72
2021/04/23 04:48:27;;;;;;;9.34;4.64;;;;;;;12.12;56.03;99329.52;360849;110;1963998;-73
2021/04/23 04:49:32;;;;;;;10.11;5.09;;;;;;;12.12;56.13;99332.22;362047;110;1962019;-73
2021/04/23 04:50:50;;;;;;;8.04;4.25;;;;;;;12.08;55.82;99329.15;352866;110;2890972;-73
2021/04/23 04:51:56;;;;;;;7.55;4.28;;;;;;;12.07;55.47;99328.33;336751;110;1962926;-73
2021/04/23 04:53:03;;;;;;;10.44;4.97;;;;;;;11.91;55.37;99328.05;361824;110;1960974;-73
2021/04/23 04:54:09;;;;;;;11.12;4.68;;;;;;;11.92;55.55;99329.73;359792;110;1963988;-73
2021/04/23 04:55:15;;;;;;;11.62;5.02;;;;;;;12.06;56.56;99337.48;320681;110;2660938;-74
2021/04/23 04:56:21;;;;;;;10.59;4.93;;;;;;;12.21;56.36;99333.60;360781;110;1963015;-73
2021/04/23 04:57:27;;;;;;;10.63;4.92;;;;;;;12.28;55.73;99332.48;360800;110;1962019;-74
2021/04/23 04:58:35;;;;;;;9.63;4.66;;;;;;;12.32;55.86;99330.95;362597;110;1962018;-74
2021/04/23 04:59:44;;;;;;;9.66;4.39;;;;;;;12.31;54.57;99336.63;342633;110;1962012;-73
2021/04/23 05:00:51;;;;;;;11.28;4.43;;;;;;;12.39;55.46;99336.31;328157;110;1960755;-73
2021/04/23 05:01:57;;;;;;;8.18;4.22;;;;;;;12.30;54.89;99338.51;361379;110;1963983;-74
2021/04/23 05:03:03;;;;;;;11.11;4.58;;;;;;;12.35;55.59;99339.70;360669;110;1965108;-73
2021/04/23 05:04:09;;;;;;;12.67;5.57;;;;;;;12.41;55.59;99336.92;352875;112;1961959;-74
2021/04/23 05:05:16;;;;;;;8.73;4.46;;;;;;;12.48;55.84;99340.36;310112;110;2804919;-74